createdAt,value
2022-09-05T00:01:44.217Z,3.83
2022-09-05T00:04:24.706Z,4.77
2022-09-05T00:07:03.051Z,5.40
2022-09-05T00:09:55.063Z,4.87
2022-09-05T00:12:23.636Z,4.40
2022-09-05T00:15:17.087Z,3.80
2022-09-05T00:18:32.475Z,5.20
2022-09-05T00:24:20.544Z,4.60
2022-09-05T00:24:32.906Z,3.83
2022-09-05T00:26:50.648Z,4.10
2022-09-05T00:29:39.679Z,4.67
2022-09-05T00:32:20.726Z,4.53
2022-09-05T00:35:03.551Z,7.90
2022-09-05T00:37:36.284Z,4.63
2022-09-05T00:40:27.922Z,3.90
2022-09-05T00:42:59.865Z,5.53
2022-09-05T00:45:34.955Z,3.90
2022-09-05T00:48:19.417Z,5.80
2022-09-05T00:51:02.144Z,4.13
2022-09-05T00:53:42.096Z,6.23
2022-09-05T00:56:27.491Z,3.80
2022-09-05T00:59:24.519Z,7.27
2022-09-05T01:01:59.342Z,4.30
2022-09-05T01:04:35.984Z,5.17
2022-09-05T01:07:16.390Z,4.10
2022-09-05T01:09:56.850Z,4.17
2022-09-05T01:12:42.883Z,4.50
2022-09-05T01:15:32.395Z,4.73
2022-09-05T01:18:31.588Z,4.97
2022-09-05T01:21:31.683Z,6.13
2022-09-05T01:24:27.590Z,4.67
2022-09-05T01:27:50.170Z,7.10
2022-09-05T01:30:31.742Z,5.17
2022-09-05T01:33:10.349Z,4.73
2022-09-05T01:36:04.188Z,4.60
2022-09-05T01:38:58.016Z,4.07
2022-09-05T01:41:39.316Z,3.97
2022-09-05T01:44:47.119Z,5.23
2022-09-05T01:47:32.098Z,4.50
2022-09-05T01:50:10.351Z,4.80
2022-09-05T01:52:58.625Z,6.53
2022-09-05T01:56:04.089Z,6.37
2022-09-05T01:58:43.274Z,5.97
2022-09-05T02:01:32.042Z,4.83
2022-09-05T02:04:36.670Z,5.47
2022-09-05T02:07:31.267Z,4.97
2022-09-05T02:10:13.653Z,4.87
2022-09-05T02:12:56.995Z,5.30
2022-09-05T02:15:45.130Z,7.03
2022-09-05T02:18:33.608Z,7.03
2022-09-05T02:21:03.251Z,7.70
2022-09-05T02:23:44.103Z,6.37
2022-09-05T02:26:19.435Z,5.43
2022-09-05T02:28:54.891Z,6.80
2022-09-05T02:31:29.377Z,5.80
2022-09-05T02:34:02.367Z,5.40
2022-09-05T02:36:39.592Z,5.87
2022-09-05T02:45:00.498Z,6.13
2022-09-05T02:45:10.845Z,6.90
2022-09-05T02:45:25.820Z,5.73
2022-09-05T02:48:06.957Z,6.67
2022-09-05T02:52:43.879Z,7.13
2022-09-05T02:57:34.572Z,5.40
2022-09-05T02:57:41.590Z,5.70
2022-09-05T02:59:49.268Z,5.23
2022-09-05T03:02:26.425Z,5.73
2022-09-05T03:05:04.651Z,6.10
2022-09-05T03:07:50.463Z,5.50
2022-09-05T03:10:53.564Z,5.70
2022-09-05T03:13:56.308Z,7.10
2022-09-05T03:16:59.643Z,9.37
2022-09-05T03:20:14.308Z,5.80
2022-09-05T03:23:23.000Z,6.60
2022-09-05T03:26:18.203Z,6.20
2022-09-05T03:29:25.421Z,6.70
2022-09-05T03:32:24.824Z,6.70
2022-09-05T03:35:40.873Z,7.43
2022-09-05T03:38:36.435Z,6.80
2022-09-05T03:41:20.292Z,6.17
2022-09-05T03:44:19.358Z,7.30
2022-09-05T03:47:03.775Z,7.50
2022-09-05T03:53:51.022Z,8.17
2022-09-05T03:57:16.511Z,7.47
2022-09-05T03:57:22.994Z,6.77
2022-09-05T03:59:38.025Z,7.07
2022-09-05T04:05:05.958Z,7.63
2022-09-05T04:08:07.159Z,7.20
2022-09-05T04:08:16.719Z,6.87
2022-09-05T04:10:56.741Z,8.33
2022-09-05T04:13:28.646Z,7.47
2022-09-05T04:16:10.634Z,9.50
2022-09-05T04:18:43.662Z,6.00
2022-09-05T04:21:16.099Z,6.33
2022-09-05T04:23:53.776Z,6.53
2022-09-05T04:26:35.607Z,6.53
2022-09-05T04:29:15.067Z,6.87
2022-09-05T04:32:15.426Z,6.50
2022-09-05T04:35:11.595Z,7.90
2022-09-05T04:37:47.945Z,7.57
2022-09-05T04:40:39.318Z,6.20
2022-09-05T04:43:11.251Z,6.57
2022-09-05T04:45:43.789Z,7.07
2022-09-05T04:48:15.829Z,7.80
2022-09-05T04:51:06.136Z,7.53
2022-09-05T04:53:57.979Z,7.07
2022-09-05T04:56:31.570Z,11.30
2022-09-05T05:00:56.329Z,7.23
2022-09-05T05:06:02.608Z,6.73
2022-09-05T05:06:11.394Z,6.80
2022-09-05T05:07:48.514Z,9.23
2022-09-05T05:10:45.298Z,7.10
2022-09-05T05:17:59.390Z,8.50
2022-09-05T05:18:07.791Z,7.63
2022-09-05T05:19:18.869Z,9.67
2022-09-05T05:21:52.743Z,7.60
2022-09-05T05:24:25.243Z,7.93
2022-09-05T05:27:00.845Z,8.70
2022-09-05T05:29:39.826Z,7.87
2022-09-05T05:32:08.954Z,7.50
2022-09-05T05:34:42.633Z,8.80
2022-09-05T05:37:18.891Z,8.23
2022-09-05T05:39:52.359Z,7.20
2022-09-05T05:42:24.722Z,10.13
2022-09-05T05:44:54.802Z,9.73
2022-09-05T05:47:31.345Z,8.77
2022-09-05T05:50:11.247Z,10.43
2022-09-05T05:52:46.615Z,7.73
2022-09-05T05:55:51.963Z,8.83
2022-09-05T05:58:43.253Z,8.37
2022-09-05T06:01:46.093Z,8.77
2022-09-05T06:04:50.096Z,9.93
2022-09-05T06:07:28.289Z,9.73
2022-09-05T06:14:52.252Z,9.27
2022-09-05T06:15:00.484Z,10.17
2022-09-05T06:17:11.528Z,11.13
2022-09-05T06:22:06.514Z,7.53
2022-09-05T06:23:39.471Z,9.10
2022-09-05T06:26:40.920Z,7.67
2022-09-05T06:29:17.268Z,9.40
2022-09-05T06:32:00.210Z,7.53
2022-09-05T06:34:59.282Z,9.20
2022-09-05T06:37:39.552Z,9.30
2022-09-05T06:40:16.932Z,7.80
2022-09-05T06:43:05.161Z,9.57
2022-09-05T06:45:58.948Z,8.00
2022-09-05T06:48:44.993Z,6.77
2022-09-05T06:51:45.168Z,8.17
2022-09-05T06:54:36.598Z,7.53
2022-09-05T06:57:25.941Z,7.83
2022-09-05T07:00:15.561Z,6.97
2022-09-05T07:03:07.394Z,5.77
2022-09-05T07:05:44.656Z,4.73
2022-09-05T07:08:35.167Z,6.13
2022-09-05T07:11:15.893Z,5.23
2022-09-05T07:13:54.683Z,6.27
2022-09-05T07:16:38.959Z,5.07
2022-09-05T07:19:24.227Z,4.33
2022-09-05T07:22:47.812Z,5.27
2022-09-05T07:25:09.184Z,4.97
2022-09-05T07:27:41.875Z,5.07
2022-09-05T07:30:28.254Z,5.03
2022-09-05T07:32:59.030Z,5.17
2022-09-05T07:35:29.692Z,4.93
2022-09-05T07:38:06.655Z,6.53
2022-09-05T07:40:39.378Z,7.67
2022-09-05T07:43:10.822Z,5.50
2022-09-05T07:45:46.502Z,5.10
2022-09-05T07:48:34.658Z,5.43
2022-09-05T07:55:13.773Z,6.37
2022-09-05T07:57:06.509Z,4.87
2022-09-05T07:57:22.681Z,7.70
2022-09-05T07:59:40.347Z,7.43
2022-09-05T08:02:12.730Z,6.53
2022-09-05T08:04:43.093Z,5.53
2022-09-05T08:07:49.710Z,5.10
2022-09-05T08:10:10.715Z,8.90
2022-09-05T08:13:00.621Z,6.40
2022-09-05T08:15:39.637Z,6.90
2022-09-05T08:18:28.266Z,5.73
2022-09-05T08:21:03.647Z,6.00
2022-09-05T08:23:49.758Z,7.00
2022-09-05T08:26:26.661Z,8.17
2022-09-05T08:29:00.552Z,5.27
2022-09-05T08:31:41.867Z,6.97
2022-09-05T08:34:18.445Z,4.77
2022-09-05T08:36:56.811Z,5.30
2022-09-05T08:39:29.359Z,4.60
2022-09-05T08:42:10.512Z,6.43
2022-09-05T08:46:47.736Z,4.80
2022-09-05T08:47:46.012Z,5.27
2022-09-05T08:50:30.216Z,4.40
2022-09-05T08:53:28.168Z,4.77
2022-09-05T08:56:02.826Z,6.53
2022-09-05T08:59:28.041Z,7.80
2022-09-05T09:02:45.228Z,5.73
2022-09-05T09:05:01.424Z,10.77
2022-09-05T09:07:50.785Z,5.37
2022-09-05T09:10:42.827Z,5.63
2022-09-05T09:13:20.104Z,4.50
2022-09-05T09:15:57.456Z,5.47
2022-09-05T09:18:38.455Z,3.80
2022-09-05T09:21:25.437Z,3.80
2022-09-05T09:24:07.015Z,5.57
2022-09-05T09:26:43.242Z,4.77
2022-09-05T09:29:13.211Z,3.67
2022-09-05T09:32:02.395Z,5.13
2022-09-05T09:34:47.296Z,4.13
2022-09-05T09:37:59.401Z,4.03
2022-09-05T09:41:03.339Z,3.33
2022-09-05T09:43:53.862Z,3.13
2022-09-05T09:46:33.926Z,3.70
2022-09-05T09:49:34.678Z,6.70
2022-09-05T09:52:35.974Z,4.40
2022-09-05T09:56:06.648Z,3.73
2022-09-05T09:59:16.827Z,3.57
2022-09-05T10:01:54.189Z,2.90
2022-09-05T10:10:39.395Z,3.20
2022-09-05T10:10:53.742Z,1.90
2022-09-05T10:11:52.106Z,5.33
2022-09-05T10:14:50.986Z,3.27
2022-09-05T10:17:47.093Z,2.07
2022-09-05T10:21:15.329Z,1.97
2022-09-05T10:24:18.010Z,6.90
2022-09-05T10:27:06.765Z,4.77
2022-09-05T10:29:50.014Z,3.27
2022-09-05T10:35:09.879Z,2.77
2022-09-05T10:35:26.654Z,3.97
2022-09-05T10:38:00.732Z,2.10
2022-09-05T10:41:07.971Z,2.20
2022-09-05T10:43:28.666Z,3.00
2022-09-05T10:46:07.571Z,1.80
2022-09-05T10:48:44.120Z,3.97
2022-09-05T10:51:26.916Z,1.90
2022-09-05T10:54:11.460Z,2.10
2022-09-05T10:56:44.577Z,2.07
2022-09-05T11:01:17.771Z,2.00
2022-09-05T11:02:33.664Z,1.63
2022-09-05T11:05:12.823Z,3.23
2022-09-05T11:07:48.915Z,2.60
2022-09-05T11:10:24.041Z,2.70
2022-09-05T11:13:15.113Z,3.17
2022-09-05T11:16:05.013Z,2.80
2022-09-05T11:18:55.498Z,2.73
2022-09-05T11:21:35.808Z,4.33
2022-09-05T11:24:16.310Z,2.40
2022-09-05T11:26:52.953Z,1.93
2022-09-05T11:29:39.889Z,3.60
2022-09-05T11:32:43.511Z,2.30
2022-09-05T11:39:54.949Z,3.70
2022-09-05T11:39:59.338Z,4.00
2022-09-05T11:42:28.424Z,2.53
2022-09-05T11:45:13.272Z,2.13
2022-09-05T11:48:06.598Z,3.13
2022-09-05T11:50:56.747Z,2.40
2022-09-05T11:53:59.464Z,3.53
2022-09-05T11:56:50.167Z,3.23
2022-09-05T12:00:08.212Z,4.37
2022-09-05T12:03:57.995Z,5.43
2022-09-05T12:06:39.503Z,3.20
2022-09-05T12:09:34.069Z,2.73
2022-09-05T12:12:27.054Z,1.60
2022-09-05T12:15:25.719Z,3.67
2022-09-05T12:18:04.624Z,2.13
2022-09-05T12:20:57.038Z,2.60
2022-09-05T12:27:40.625Z,2.00
2022-09-05T12:29:33.023Z,3.43
2022-09-05T12:34:11.956Z,2.63
2022-09-05T12:36:10.694Z,3.03
2022-09-05T12:40:05.221Z,2.97
2022-09-05T12:41:35.674Z,3.57
2022-09-05T12:41:41.475Z,1.83
2022-09-05T12:44:39.687Z,2.30
2022-09-05T12:46:45.644Z,2.63
2022-09-05T12:49:23.588Z,3.20
2022-09-05T12:52:05.962Z,2.07
2022-09-05T12:54:42.657Z,1.40
2022-09-05T13:02:46.689Z,2.57
2022-09-05T13:02:55.510Z,2.07
2022-09-05T13:03:27.082Z,4.40
2022-09-05T13:06:02.443Z,2.33
2022-09-05T13:08:44.080Z,5.40
2022-09-05T13:14:46.507Z,3.23
2022-09-05T13:14:57.340Z,3.97
2022-09-05T13:16:58.120Z,1.77
2022-09-05T13:19:34.166Z,2.67
2022-09-05T13:22:04.067Z,3.43
2022-09-05T13:24:37.391Z,2.40
2022-09-05T13:27:13.668Z,2.27
2022-09-05T13:30:57.723Z,2.50
2022-09-05T13:37:55.079Z,3.63
2022-09-05T13:38:13.925Z,2.33
2022-09-05T13:38:47.692Z,2.83
2022-09-05T13:41:27.200Z,2.53
2022-09-05T13:44:00.371Z,3.33
2022-09-05T13:47:01.941Z,4.07
2022-09-05T13:49:43.371Z,2.70
2022-09-05T13:52:27.912Z,2.83
2022-09-05T13:55:15.253Z,2.93
2022-09-05T13:57:48.661Z,2.00
2022-09-05T14:01:12.870Z,3.50
2022-09-05T14:05:05.085Z,3.43
2022-09-05T14:10:35.572Z,2.90
2022-09-05T14:13:08.331Z,2.87
2022-09-05T14:15:42.482Z,2.57
2022-09-05T14:18:22.786Z,4.00
2022-09-05T14:21:14.297Z,3.07
2022-09-05T14:23:53.634Z,3.60
2022-09-05T14:26:27.975Z,2.40
2022-09-05T14:29:03.294Z,3.53
2022-09-05T14:37:35.250Z,4.00
2022-09-05T14:37:45.497Z,4.27
2022-09-05T14:38:09.651Z,5.60
2022-09-05T14:41:22.085Z,2.80
2022-09-05T14:44:22.076Z,2.90
2022-09-05T14:47:32.350Z,2.17
2022-09-05T14:50:24.510Z,5.53
2022-09-05T14:56:50.139Z,3.03
2022-09-05T15:02:47.776Z,2.65
2022-09-05T15:02:54.383Z,3.03
2022-09-05T15:04:44.569Z,3.90
2022-09-05T15:07:19.355Z,2.47
2022-09-05T15:12:16.353Z,4.50
2022-09-05T15:12:51.266Z,2.70
2022-09-05T15:15:28.569Z,4.47
2022-09-05T15:18:00.980Z,1.90
2022-09-05T15:20:32.381Z,3.97
2022-09-05T15:23:11.134Z,3.83
2022-09-05T15:25:47.849Z,3.57
2022-09-05T15:28:21.230Z,16.73
2022-09-05T15:31:00.194Z,22.13
2022-09-05T15:33:30.976Z,6.07
2022-09-05T15:36:00.729Z,3.33
2022-09-05T15:38:37.101Z,15.70
2022-09-05T15:41:24.440Z,3.77
2022-09-05T15:44:00.419Z,4.30
2022-09-05T15:46:48.074Z,1.87
2022-09-05T15:49:28.195Z,5.97
2022-09-05T15:51:58.590Z,5.30
2022-09-05T15:54:38.044Z,3.60
2022-09-05T15:57:17.603Z,3.33
2022-09-05T15:59:49.411Z,2.30
2022-09-05T16:02:21.818Z,3.67
2022-09-05T16:10:26.968Z,3.50
2022-09-05T16:10:43.608Z,11.97
2022-09-05T16:13:39.698Z,4.70
2022-09-05T16:23:11.914Z,2.10
2022-09-05T16:23:13.325Z,4.37
2022-09-05T16:23:23.750Z,4.77
2022-09-05T16:24:58.074Z,4.83
2022-09-05T16:27:46.529Z,2.93
2022-09-05T16:30:23.258Z,4.53
2022-09-05T16:32:54.894Z,3.30
2022-09-05T16:35:26.511Z,9.53
2022-09-05T16:38:02.019Z,4.10
2022-09-05T16:40:35.213Z,6.47
2022-09-05T16:43:06.944Z,4.00
2022-09-05T16:45:46.215Z,3.30
2022-09-05T16:48:35.344Z,3.37
2022-09-05T16:51:13.208Z,4.30
2022-09-05T16:53:58.091Z,3.37
2022-09-05T16:56:34.928Z,2.57
2022-09-05T16:59:08.043Z,3.87
2022-09-05T17:02:09.212Z,5.40
2022-09-05T17:05:03.525Z,4.33
2022-09-05T17:07:45.376Z,2.83
2022-09-05T17:10:18.109Z,3.07
2022-09-05T17:12:45.996Z,3.00
2022-09-05T17:15:17.666Z,3.00
2022-09-05T17:18:19.126Z,2.83
2022-09-05T17:20:49.507Z,3.90
2022-09-05T17:28:02.482Z,3.67
2022-09-05T17:29:26.223Z,1.87
2022-09-05T17:29:30.259Z,2.57
2022-09-05T17:31:58.756Z,4.17
2022-09-05T17:35:17.567Z,2.17
2022-09-05T17:38:18.824Z,3.30
2022-09-05T17:41:06.377Z,5.77
2022-09-05T17:43:38.510Z,3.57
2022-09-05T17:46:20.054Z,3.60
2022-09-05T17:49:20.087Z,4.23
2022-09-05T17:52:22.881Z,3.27
2022-09-05T17:54:53.801Z,5.00
2022-09-05T17:57:41.923Z,4.07
2022-09-05T18:00:44.584Z,2.80
2022-09-05T18:03:12.912Z,4.20
2022-09-05T18:06:03.780Z,2.47
2022-09-05T18:08:52.834Z,4.20
2022-09-05T18:11:37.750Z,4.43
2022-09-05T18:14:46.835Z,3.90
2022-09-05T18:17:44.247Z,2.60
2022-09-05T18:20:17.579Z,4.33
2022-09-05T18:22:54.934Z,2.80
2022-09-05T18:25:49.013Z,4.37
2022-09-05T18:28:31.566Z,4.57
2022-09-05T18:31:35.322Z,6.90
2022-09-05T18:34:56.074Z,5.73
2022-09-05T18:37:53.430Z,5.17
2022-09-05T18:40:55.630Z,5.17
2022-09-05T18:43:42.080Z,5.10
2022-09-05T18:46:25.836Z,4.77
2022-09-05T18:49:29.013Z,4.00
2022-09-05T18:51:54.982Z,6.87
2022-09-05T18:54:25.911Z,5.47
2022-09-05T18:57:26.560Z,7.50
2022-09-05T18:59:52.859Z,7.77
2022-09-05T19:02:50.477Z,5.03
2022-09-05T19:05:34.585Z,8.43
2022-09-05T19:08:08.291Z,3.97
2022-09-05T19:10:58.878Z,4.60
2022-09-05T19:13:32.255Z,6.73
2022-09-05T19:16:42.119Z,9.87
2022-09-05T19:19:10.971Z,10.40
2022-09-05T19:21:56.137Z,4.23
2022-09-05T19:24:45.078Z,5.27
2022-09-05T19:28:04.381Z,4.53
2022-09-05T19:36:53.407Z,6.20
2022-09-05T19:36:58.160Z,5.07
2022-09-05T19:37:03.963Z,6.17
2022-09-05T19:40:09.776Z,5.23
2022-09-05T19:47:26.565Z,3.83
2022-09-05T19:47:49.924Z,1.90
2022-09-05T19:47:56.018Z,5.50
2022-09-05T19:50:11.285Z,5.57
2022-09-05T19:52:40.296Z,2.80
2022-09-05T19:55:21.718Z,2.83
2022-09-05T19:58:18.454Z,3.50
2022-09-05T20:00:41.520Z,4.03
2022-09-05T20:03:10.171Z,8.10
2022-09-05T20:05:43.558Z,7.17
2022-09-05T20:08:14.217Z,3.03
2022-09-05T20:10:42.406Z,2.87
2022-09-05T20:13:24.132Z,5.30
2022-09-05T20:15:53.301Z,5.50
2022-09-05T20:18:24.526Z,4.73
2022-09-05T20:20:57.152Z,4.13
2022-09-05T20:23:27.371Z,4.33
2022-09-05T20:25:57.871Z,2.43
2022-09-05T20:28:28.342Z,4.90
2022-09-05T20:31:01.724Z,3.03
2022-09-05T20:33:37.224Z,3.13
2022-09-05T20:42:15.680Z,3.27
2022-09-05T20:43:19.458Z,5.97
2022-09-05T20:43:21.935Z,5.70
2022-09-05T20:44:42.243Z,3.07
2022-09-05T20:51:31.559Z,4.27
2022-09-05T20:54:13.742Z,2.20
2022-09-05T20:54:15.607Z,2.43
2022-09-05T20:55:46.420Z,5.83
2022-09-05T20:58:16.370Z,3.80
2022-09-05T21:01:20.327Z,2.73
2022-09-05T21:03:40.599Z,6.43
2022-09-05T21:06:22.103Z,3.97
2022-09-05T21:08:52.372Z,4.47
2022-09-05T21:11:31.055Z,3.67
2022-09-05T21:14:02.346Z,3.83
2022-09-05T21:16:32.712Z,3.10
2022-09-05T21:19:00.960Z,2.70
2022-09-05T21:21:31.528Z,2.80
2022-09-05T21:24:17.587Z,2.17
2022-09-05T21:26:48.657Z,3.83
2022-09-05T21:29:17.985Z,3.77
2022-09-05T21:31:49.257Z,2.00
2022-09-05T21:34:27.915Z,3.53
2022-09-05T21:37:07.233Z,3.13
2022-09-05T21:39:46.500Z,3.13
2022-09-05T21:46:53.514Z,3.10
2022-09-05T21:47:40.082Z,3.63
2022-09-05T21:48:07.795Z,3.43
2022-09-05T21:50:39.707Z,2.63
2022-09-05T21:54:22.443Z,2.20
2022-09-05T21:59:20.807Z,2.97
2022-09-05T21:59:25.143Z,2.13
2022-09-05T22:01:51.679Z,3.63
2022-09-05T22:04:21.850Z,6.10
2022-09-05T22:06:50.279Z,4.97
2022-09-05T22:09:19.709Z,2.43
2022-09-05T22:11:51.288Z,2.00
2022-09-05T22:14:20.047Z,2.77
2022-09-05T22:16:50.334Z,2.17
2022-09-05T22:19:23.105Z,3.83
2022-09-05T22:21:54.360Z,5.13
2022-09-05T22:24:23.386Z,2.50
2022-09-05T22:27:11.084Z,3.00
2022-09-05T22:29:40.953Z,2.60
2022-09-05T22:32:09.170Z,3.50
2022-09-05T22:34:37.065Z,3.73
2022-09-05T22:37:04.959Z,2.63
2022-09-05T22:39:37.661Z,3.20
2022-09-05T22:42:10.709Z,3.57
2022-09-05T22:44:40.078Z,7.03
2022-09-05T22:47:08.651Z,7.57
2022-09-05T22:49:37.064Z,4.43
2022-09-05T22:52:05.987Z,3.47
2022-09-05T22:54:33.919Z,4.27
2022-09-05T22:57:02.138Z,6.70
2022-09-05T22:59:31.420Z,5.77
2022-09-05T23:01:59.380Z,3.07
2022-09-05T23:04:27.508Z,2.70
2022-09-05T23:06:55.667Z,3.53
2022-09-05T23:09:23.763Z,4.47
2022-09-05T23:11:51.622Z,5.37
2022-09-05T23:14:19.490Z,4.27
2022-09-05T23:16:48.800Z,4.53
2022-09-05T23:19:16.683Z,3.20
2022-09-05T23:21:44.547Z,3.50
2022-09-05T23:24:12.542Z,3.37
2022-09-05T23:26:40.395Z,3.03
2022-09-05T23:29:08.239Z,2.70
2022-09-05T23:31:36.109Z,4.93
2022-09-05T23:34:05.367Z,4.97
2022-09-05T23:36:33.230Z,2.77
2022-09-05T23:39:01.063Z,3.53
2022-09-05T23:41:28.975Z,3.63
2022-09-05T23:43:56.943Z,3.47
2022-09-05T23:46:25.195Z,4.53
2022-09-05T23:48:53.075Z,5.67
2022-09-05T23:51:22.296Z,3.93
2022-09-05T23:53:50.179Z,5.77
2022-09-05T23:56:18.091Z,4.63
2022-09-05T23:58:45.919Z,3.87
